Time;durP1;ratioP1;P1;durP2;ratioP2;P2;SDS_P1;SDS_P2;PMS_P1;PMS_P2;Temp;Humidity;BMP_temperature;BMP_pressure;BME280_temperature;BME280_humidity;BME280_pressure;Samples;Min_cycle;Max_cycle;Signal;HPM_P1;HPM_P2
2023/06/25 00:00:27;;;;;;;2.90;2.38;;;21.50;99.90;;;;;;4994538;28;20022;-37
2023/06/25 00:02:53;;;;;;;3.22;2.85;;;21.50;99.90;;;;;;4994704;28;20018;-37
2023/06/25 00:05:19;;;;;;;3.42;2.17;;;21.50;99.90;;;;;;4994336;28;20422;-38
2023/06/25 00:07:45;;;;;;;2.85;2.40;;;21.50;99.90;;;;;;4994512;28;20042;-38
2023/06/25 00:10:10;;;;;;;3.40;2.40;;;21.50;99.90;;;;;;4994528;28;20022;-37
2023/06/25 00:12:36;;;;;;;3.55;2.60;;;21.50;99.90;;;;;;4994290;28;20038;-37
2023/06/25 00:15:03;;;;;;;4.22;2.60;;;21.40;99.90;;;;;;4992970;28;20400;-37
2023/06/25 00:17:29;;;;;;;3.10;2.63;;;21.50;99.90;;;;;;4994236;28;20050;-37
2023/06/25 00:19:56;;;;;;;3.35;2.38;;;21.50;99.90;;;;;;4994244;28;20498;-37
2023/06/25 00:22:22;;;;;;;3.05;2.67;;;21.50;99.90;;;;;;4994196;28;20014;-38
2023/06/25 00:24:48;;;;;;;6.43;2.22;;;21.40;99.90;;;;;;4993928;28;20069;-37
2023/06/25 00:27:13;;;;;;;3.28;2.63;;;21.40;99.90;;;;;;4994606;28;20038;-37
2023/06/25 00:29:39;;;;;;;3.65;2.80;;;21.50;99.90;;;;;;4992687;28;20023;-37
2023/06/25 00:32:05;;;;;;;3.00;2.38;;;21.40;99.90;;;;;;4994105;28;20022;-37
2023/06/25 00:34:30;;;;;;;2.83;2.53;;;21.50;99.90;;;;;;4994013;28;20046;-37
2023/06/25 00:36:57;;;;;;;4.47;2.88;;;21.40;99.90;;;;;;4993833;28;20093;-38
2023/06/25 00:39:23;;;;;;;2.95;2.40;;;21.40;99.90;;;;;;4993979;28;20034;-37
2023/06/25 00:41:49;;;;;;;2.92;2.53;;;21.40;99.90;;;;;;4993875;28;20085;-37
2023/06/25 00:44:14;;;;;;;2.72;2.35;;;21.40;99.90;;;;;;4993625;28;20024;-37
2023/06/25 00:46:40;;;;;;;3.63;2.40;;;21.40;99.90;;;;;;4993688;28;20061;-38
2023/06/25 00:49:06;;;;;;;3.50;2.40;;;21.40;99.90;;;;;;4993912;28;20058;-38
2023/06/25 00:51:37;;;;;;;2.47;2.28;;;21.40;99.90;;;;;;4994019;28;20392;-37
2023/06/25 00:54:06;;;;;;;2.83;2.20;;;21.40;99.90;;;;;;4993661;28;20093;-38
2023/06/25 00:56:37;;;;;;;3.17;2.40;;;21.40;99.90;;;;;;4993304;28;20080;-37
2023/06/25 00:59:03;;;;;;;2.50;2.30;;;21.40;99.90;;;;;;4993540;28;20030;-38
2023/06/25 01:01:55;;;;;;;2.67;2.42;;;21.40;99.90;;;;;;4993628;28;20015;-37
2023/06/25 01:04:27;;;;;;;3.20;2.40;;;21.40;99.90;;;;;;4993644;28;20077;-37
2023/06/25 01:06:57;;;;;;;2.97;2.53;;;21.40;99.90;;;;;;4993909;28;20053;-38
2023/06/25 01:09:25;;;;;;;3.00;2.60;;;21.40;99.90;;;;;;4993485;28;20030;-37
2023/06/25 01:12:02;;;;;;;3.28;2.30;;;21.40;99.90;;;;;;4993480;28;20029;-37
2023/06/25 01:14:28;;;;;;;2.85;2.42;;;21.40;99.90;;;;;;4993409;28;20528;-37
2023/06/25 01:16:55;;;;;;;3.10;2.35;;;21.40;99.90;;;;;;4992597;28;20061;-37
2023/06/25 01:19:29;;;;;;;3.28;2.28;;;21.40;99.90;;;;;;4993325;28;20392;-37
2023/06/25 01:22:02;;;;;;;;;;;21.40;99.90;;;;;;4993730;28;20025;-37
2023/06/25 01:24:28;;;;;;;3.20;2.65;;;21.40;99.90;;;;;;4993254;28;19964;-37
2023/06/25 01:26:56;;;;;;;3.53;2.40;;;21.40;99.90;;;;;;4993161;28;20433;-38
2023/06/25 01:29:22;;;;;;;3.42;2.35;;;21.30;99.90;;;;;;4993129;28;20054;-38
2023/06/25 01:31:51;;;;;;;3.40;2.55;;;21.30;99.90;;;;;;4993151;28;20473;-37
2023/06/25 01:34:23;;;;;;;2.90;2.60;;;21.40;99.90;;;;;;4992923;28;20065;-37
2023/06/25 01:36:50;;;;;;;3.05;2.38;;;21.40;99.90;;;;;;4992963;28;20030;-37
2023/06/25 01:39:20;;;;;;;2.58;2.33;;;21.40;99.90;;;;;;4992904;28;20038;-38
2023/06/25 01:41:47;;;;;;;2.72;2.45;;;21.40;99.90;;;;;;4993227;28;20057;-38
2023/06/25 01:44:25;;;;;;;4.00;2.38;;;21.30;99.90;;;;;;4992570;28;20110;-37
2023/06/25 01:46:51;;;;;;;2.90;2.10;;;21.30;99.90;;;;;;4992478;28;20026;-38
2023/06/25 01:49:17;;;;;;;3.13;2.47;;;21.30;99.90;;;;;;4992837;28;20478;-37
2023/06/25 01:51:42;;;;;;;3.60;2.80;;;21.30;99.90;;;;;;4992765;28;20213;-37
2023/06/25 01:54:08;;;;;;;3.63;2.60;;;21.30;99.90;;;;;;4992565;28;20117;-37
2023/06/25 01:56:33;;;;;;;2.60;2.40;;;21.30;99.90;;;;;;4992457;28;20109;-38
2023/06/25 01:58:59;;;;;;;2.92;2.40;;;21.30;99.90;;;;;;4992416;28;20034;-37
2023/06/25 02:01:25;;;;;;;3.30;2.50;;;21.30;99.90;;;;;;4992531;28;20336;-37
2023/06/25 02:03:50;;;;;;;3.00;2.40;;;21.30;99.90;;;;;;4992578;28;20022;-37
2023/06/25 02:06:16;;;;;;;2.90;2.53;;;21.30;99.90;;;;;;4992355;28;20500;-37
2023/06/25 02:08:42;;;;;;;3.38;2.65;;;21.30;99.90;;;;;;4992592;28;20044;-37
2023/06/25 02:11:08;;;;;;;3.20;2.40;;;21.30;99.90;;;;;;4992482;28;20026;-37
2023/06/25 02:13:34;;;;;;;3.13;2.70;;;21.30;99.90;;;;;;4992496;28;20085;-40
2023/06/25 02:16:01;;;;;;;3.15;2.50;;;21.30;99.90;;;;;;4992018;28;20128;-40
2023/06/25 02:18:28;;;;;;;3.20;2.72;;;21.30;99.90;;;;;;4992402;28;20109;-38
2023/06/25 02:20:53;;;;;;;3.83;2.70;;;21.30;99.90;;;;;;4992274;28;20393;-38
2023/06/25 02:23:19;;;;;;;3.08;2.70;;;21.30;99.90;;;;;;4992125;28;20026;-37
2023/06/25 02:25:45;;;;;;;2.53;2.30;;;21.20;99.90;;;;;;4991831;28;20062;-38
2023/06/25 02:28:10;;;;;;;3.95;2.70;;;21.30;99.90;;;;;;4991119;28;20424;-37
2023/06/25 02:30:36;;;;;;;3.75;2.38;;;21.30;99.90;;;;;;4992315;28;20044;-38
2023/06/25 02:33:01;;;;;;;3.00;2.55;;;21.30;99.90;;;;;;4991998;28;20029;-38
2023/06/25 02:35:27;;;;;;;3.78;2.50;;;21.20;99.90;;;;;;4991763;28;20062;-37
2023/06/25 02:37:53;;;;;;;3.28;2.95;;;21.30;99.90;;;;;;4991892;28;20096;-36
2023/06/25 02:40:19;;;;;;;3.22;2.50;;;21.20;99.90;;;;;;4992009;28;20034;-41
2023/06/25 02:42:45;;;;;;;3.35;3.00;;;21.20;99.90;;;;;;4991813;28;20536;-41
2023/06/25 02:45:11;;;;;;;3.35;2.75;;;21.30;99.90;;;;;;4991622;28;20022;-40
2023/06/25 02:47:36;;;;;;;3.67;2.70;;;21.30;99.90;;;;;;4991821;28;20559;-38
2023/06/25 02:50:02;;;;;;;3.70;2.58;;;21.30;99.90;;;;;;4991861;28;20085;-38
2023/06/25 02:52:28;;;;;;;3.25;2.40;;;21.20;99.90;;;;;;4991856;28;20037;-38
2023/06/25 02:54:53;;;;;;;4.03;2.97;;;21.30;99.90;;;;;;4991648;28;20389;-41
2023/06/25 02:57:23;;;;;;;4.05;2.60;;;21.20;99.90;;;;;;4991634;28;20072;-38
2023/06/25 02:59:49;;;;;;;3.17;2.80;;;21.20;99.90;;;;;;4991732;28;20030;-41
2023/06/25 03:02:14;;;;;;;3.30;2.80;;;21.30;99.90;;;;;;4991738;28;20157;-38
2023/06/25 03:04:40;;;;;;;3.78;3.22;;;21.20;99.90;;;;;;4991688;28;20034;-36
2023/06/25 03:07:06;;;;;;;5.30;2.90;;;21.20;99.90;;;;;;4991554;28;20100;-38
2023/06/25 03:09:31;;;;;;;4.95;3.10;;;21.20;99.90;;;;;;4991724;28;20367;-42
2023/06/25 03:11:57;;;;;;;3.40;3.10;;;21.20;99.90;;;;;;4991572;28;20068;-39
2023/06/25 03:14:22;;;;;;;3.10;2.50;;;21.20;99.90;;;;;;4991572;28;20081;-37
2023/06/25 03:16:48;;;;;;;5.15;2.88;;;21.20;99.90;;;;;;4991413;28;20106;-38
2023/06/25 03:19:14;;;;;;;3.80;3.20;;;21.20;99.90;;;;;;4990271;28;20058;-38
2023/06/25 03:21:39;;;;;;;4.18;2.97;;;21.20;99.90;;;;;;4991578;28;20465;-39
2023/06/25 03:24:05;;;;;;;3.10;2.80;;;21.20;99.90;;;;;;4991504;28;20034;-39
2023/06/25 03:26:31;;;;;;;3.60;2.72;;;21.20;99.90;;;;;;4991279;28;20030;-37
2023/06/25 03:28:58;;;;;;;3.88;2.90;;;21.20;99.90;;;;;;4991569;28;20568;-38
2023/06/25 03:31:24;;;;;;;3.40;3.00;;;21.10;99.90;;;;;;4991583;28;20026;-39
2023/06/25 03:33:49;;;;;;;4.93;3.22;;;21.20;99.90;;;;;;4991485;28;20084;-38
2023/06/25 03:36:15;;;;;;;6.35;3.15;;;21.20;99.90;;;;;;4991398;28;20113;-40
2023/06/25 03:38:41;;;;;;;3.00;2.70;;;21.20;99.90;;;;;;4991512;28;20126;-40
2023/06/25 03:41:06;;;;;;;3.00;2.60;;;21.20;99.90;;;;;;4994964;28;20045;-38
2023/06/25 03:43:32;;;;;;;4.78;2.80;;;21.20;99.90;;;;;;4994971;28;20044;-39
2023/06/25 03:45:58;;;;;;;3.15;2.78;;;21.20;99.90;;;;;;4994676;28;20037;-37
2023/06/25 03:48:23;;;;;;;3.00;2.63;;;21.20;99.90;;;;;;4994944;28;20110;-38
2023/06/25 03:50:49;;;;;;;3.25;2.85;;;21.20;99.90;;;;;;4994912;28;20053;-38
2023/06/25 03:53:17;;;;;;;4.78;3.00;;;21.10;99.90;;;;;;4994911;28;20022;-38
2023/06/25 03:55:43;;;;;;;5.25;3.05;;;21.10;99.90;;;;;;4994508;28;20030;-37
2023/06/25 03:58:08;;;;;;;3.97;2.78;;;21.10;99.90;;;;;;4994696;28;20026;-37
2023/06/25 04:00:34;;;;;;;3.30;2.78;;;21.10;99.90;;;;;;4994745;28;20027;-39
2023/06/25 04:03:00;;;;;;;4.05;3.45;;;21.10;99.90;;;;;;4994536;28;20026;-39
2023/06/25 04:05:25;;;;;;;4.22;3.28;;;21.10;99.90;;;;;;4994274;28;20481;-38
2023/06/25 04:07:51;;;;;;;3.83;2.88;;;21.10;99.90;;;;;;4994923;28;20493;-37
2023/06/25 04:10:17;;;;;;;3.40;3.10;;;21.10;99.90;;;;;;4994378;28;20026;-38
2023/06/25 04:12:42;;;;;;;3.75;2.80;;;21.10;99.90;;;;;;4994184;28;20371;-40
2023/06/25 04:15:08;;;;;;;3.15;2.65;;;21.10;99.90;;;;;;4994136;28;20031;-41
2023/06/25 04:17:34;;;;;;;3.38;2.95;;;21.10;99.90;;;;;;4994269;28;20105;-37
2023/06/25 04:19:59;;;;;;;3.50;2.83;;;21.10;99.90;;;;;;4994314;28;20129;-38
2023/06/25 04:22:25;;;;;;;3.10;2.80;;;21.10;99.90;;;;;;4994199;28;20042;-36
2023/06/25 04:24:51;;;;;;;3.03;2.45;;;21.10;99.90;;;;;;4993962;28;20018;-38
2023/06/25 04:27:16;;;;;;;2.95;2.65;;;21.10;99.90;;;;;;4994239;28;20436;-38
2023/06/25 04:29:42;;;;;;;5.97;2.72;;;21.10;99.90;;;;;;4994250;28;20065;-38
2023/06/25 04:32:08;;;;;;;3.63;2.85;;;21.10;99.90;;;;;;4994043;28;20026;-37
2023/06/25 04:34:34;;;;;;;4.07;3.08;;;21.10;99.90;;;;;;4994192;28;20050;-40
2023/06/25 04:37:00;;;;;;;3.63;3.03;;;21.10;99.90;;;;;;4993900;28;20030;-38
2023/06/25 04:39:25;;;;;;;3.58;3.10;;;21.10;99.90;;;;;;4993732;28;20425;-39
2023/06/25 04:41:51;;;;;;;3.00;2.33;;;21.10;99.90;;;;;;4993882;28;20030;-37
2023/06/25 04:44:16;;;;;;;3.63;3.08;;;21.10;99.90;;;;;;4993840;28;20023;-40
2023/06/25 04:46:42;;;;;;;3.30;3.00;;;21.10;99.90;;;;;;4993656;28;20038;-38
2023/06/25 04:49:09;;;;;;;5.07;3.65;;;21.10;99.90;;;;;;4993819;28;20022;-38
2023/06/25 04:51:34;;;;;;;3.80;3.00;;;21.10;99.90;;;;;;4992740;28;20033;-37
2023/06/25 04:54:00;;;;;;;4.22;3.10;;;21.10;99.90;;;;;;4993444;28;20026;-38
2023/06/25 04:56:26;;;;;;;4.25;3.00;;;21.10;99.90;;;;;;4993357;28;20048;-38
2023/06/25 04:58:51;;;;;;;4.22;3.30;;;21.10;99.90;;;;;;4993589;28;20023;-38
2023/06/25 05:01:17;;;;;;;4.28;2.90;;;21.10;99.90;;;;;;4993685;28;20102;-38
2023/06/25 05:03:43;;;;;;;4.45;3.40;;;21.10;99.90;;;;;;4993420;28;20054;-38
2023/06/25 05:06:08;;;;;;;4.53;3.28;;;21.10;99.90;;;;;;4993244;28;20025;-40
2023/06/25 05:08:34;;;;;;;3.47;2.90;;;21.10;99.90;;;;;;4992063;28;20478;-41
2023/06/25 05:11:00;;;;;;;3.58;2.88;;;21.10;99.90;;;;;;4993259;28;20034;-40
2023/06/25 05:13:29;;;;;;;3.95;3.10;;;21.10;99.90;;;;;;4993214;28;20049;-39
2023/06/25 05:15:54;;;;;;;3.38;2.63;;;21.10;99.90;;;;;;4993031;28;20033;-38
2023/06/25 05:18:20;;;;;;;3.30;2.80;;;21.10;99.90;;;;;;4993119;28;20022;-38
2023/06/25 05:20:45;;;;;;;5.40;3.10;;;21.10;99.90;;;;;;4993109;28;20062;-37
2023/06/25 05:23:11;;;;;;;3.53;2.75;;;21.10;99.90;;;;;;4992993;28;20018;-38
2023/06/25 05:25:37;;;;;;;3.58;2.80;;;21.10;99.90;;;;;;4992815;28;20022;-38
2023/06/25 05:28:03;;;;;;;4.10;2.95;;;21.10;99.90;;;;;;4993233;28;20040;-37
2023/06/25 05:30:30;;;;;;;3.40;3.10;;;21.10;99.90;;;;;;4992969;28;20022;-38
2023/06/25 05:32:56;;;;;;;3.40;2.80;;;21.10;99.90;;;;;;4992911;28;20035;-38
2023/06/25 05:35:22;;;;;;;6.55;2.58;;;21.10;99.90;;;;;;4992682;28;20022;-38
2023/06/25 05:37:48;;;;;;;3.22;2.83;;;21.10;99.90;;;;;;4992708;28;20022;-39
2023/06/25 05:40:14;;;;;;;3.65;2.85;;;21.10;99.90;;;;;;4992806;28;20081;-39
2023/06/25 05:42:40;;;;;;;3.67;2.88;;;21.10;99.90;;;;;;4992687;28;20015;-39
2023/06/25 05:45:07;;;;;;;3.33;2.78;;;21.00;99.90;;;;;;4992432;28;20113;-42
2023/06/25 05:47:33;;;;;;;3.80;3.00;;;21.10;99.90;;;;;;4992763;28;20026;-38
2023/06/25 05:49:59;;;;;;;3.35;2.97;;;21.10;99.90;;;;;;4992645;28;20034;-38
2023/06/25 05:52:25;;;;;;;3.97;2.72;;;21.10;99.90;;;;;;4991127;28;20050;-38
2023/06/25 05:54:50;;;;;;;3.58;2.65;;;21.10;99.90;;;;;;4992421;28;20474;-38
2023/06/25 05:57:16;;;;;;;3.25;2.70;;;21.10;99.90;;;;;;4992461;28;20393;-38
2023/06/25 05:59:41;;;;;;;3.33;2.83;;;21.10;99.90;;;;;;4992760;28;20038;-38
2023/06/25 06:02:08;;;;;;;3.78;2.78;;;21.10;99.90;;;;;;4992143;28;20057;-37
2023/06/25 06:04:36;;;;;;;3.08;2.60;;;21.10;99.90;;;;;;4992338;28;20037;-41
2023/06/25 06:07:02;;;;;;;2.97;2.70;;;21.10;99.90;;;;;;4991988;28;20019;-39
2023/06/25 06:09:29;;;;;;;3.47;2.80;;;21.10;99.90;;;;;;4992287;28;20033;-37
2023/06/25 06:11:55;;;;;;;3.70;3.05;;;21.10;99.90;;;;;;4992298;28;20049;-39
2023/06/25 06:14:20;;;;;;;4.60;3.20;;;21.10;99.90;;;;;;4992259;28;20413;-38
2023/06/25 06:16:46;;;;;;;3.33;2.80;;;21.10;99.90;;;;;;4992021;28;20485;-40
2023/06/25 06:19:12;;;;;;;2.92;2.63;;;21.10;99.90;;;;;;4992121;28;20037;-39
2023/06/25 06:21:37;;;;;;;4.20;3.08;;;21.10;99.90;;;;;;4992043;28;20421;-38
2023/06/25 06:24:03;;;;;;;4.32;2.50;;;21.10;99.90;;;;;;4992098;28;20512;-40
2023/06/25 06:26:29;;;;;;;3.03;2.70;;;21.10;99.90;;;;;;4992054;28;20504;-37
2023/06/25 06:28:54;;;;;;;3.92;2.83;;;21.10;99.90;;;;;;4992047;28;20022;-38
2023/06/25 06:31:21;;;;;;;3.40;2.80;;;21.10;99.90;;;;;;4992051;28;20033;-37
2023/06/25 06:33:47;;;;;;;3.03;2.55;;;21.10;99.90;;;;;;4991904;28;20034;-37
2023/06/25 06:36:13;;;;;;;3.00;2.60;;;21.10;99.90;;;;;;4991603;28;20053;-38
2023/06/25 06:38:39;;;;;;;5.47;2.88;;;21.10;99.90;;;;;;4991920;28;20034;-36
2023/06/25 06:41:04;;;;;;;3.20;2.35;;;21.10;99.90;;;;;;4991953;28;20489;-38
2023/06/25 06:43:31;;;;;;;3.70;3.00;;;21.10;99.90;;;;;;4991811;28;20030;-37
2023/06/25 06:45:56;;;;;;;2.97;2.60;;;21.10;99.90;;;;;;4991671;28;20073;-42
2023/06/25 06:48:22;;;;;;;3.13;2.80;;;21.10;99.90;;;;;;4991860;28;20441;-38
2023/06/25 06:50:48;;;;;;;2.97;2.67;;;21.10;99.90;;;;;;4991768;28;20038;-39
2023/06/25 06:53:14;;;;;;;2.60;2.40;;;21.10;99.90;;;;;;4991812;28;20084;-37
2023/06/25 06:55:39;;;;;;;3.10;2.58;;;21.10;99.90;;;;;;4991862;28;20030;-38
2023/06/25 06:58:05;;;;;;;3.40;2.63;;;21.20;99.90;;;;;;4991737;28;20026;-37
2023/06/25 07:00:31;;;;;;;3.05;2.60;;;21.20;99.90;;;;;;4991784;28;20022;-39
2023/06/25 07:02:59;;;;;;;4.70;2.80;;;21.20;99.90;;;;;;4991704;28;20057;-38
2023/06/25 07:05:25;;;;;;;4.13;2.70;;;21.20;99.90;;;;;;4991910;28;20098;-39
2023/06/25 07:07:50;;;;;;;3.00;2.60;;;21.20;99.90;;;;;;4991925;28;20038;-37
2023/06/25 07:10:16;;;;;;;2.72;2.40;;;21.20;99.90;;;;;;4991780;28;20037;-37
2023/06/25 07:12:42;;;;;;;3.05;2.72;;;21.20;99.90;;;;;;4991524;28;20039;-38
2023/06/25 07:15:08;;;;;;;2.90;2.60;;;21.20;99.90;;;;;;4993726;28;20049;-39
2023/06/25 07:17:33;;;;;;;2.90;2.47;;;21.20;99.90;;;;;;4995444;28;20068;-38
2023/06/25 07:19:59;;;;;;;2.80;2.50;;;21.20;99.90;;;;;;4995288;28;20105;-38
2023/06/25 07:22:25;;;;;;;3.33;2.50;;;21.20;99.90;;;;;;4995525;28;20381;-38
2023/06/25 07:24:50;;;;;;;3.28;2.90;;;21.20;99.90;;;;;;4995135;28;20026;-39
2023/06/25 07:27:16;;;;;;;3.85;2.50;;;21.20;99.90;;;;;;4995317;28;20026;-38
2023/06/25 07:29:42;;;;;;;3.03;2.53;;;21.20;99.90;;;;;;4995431;28;20042;-39
2023/06/25 07:32:08;;;;;;;3.08;2.78;;;21.20;99.90;;;;;;4995183;28;20106;-37
2023/06/25 07:34:33;;;;;;;3.75;2.63;;;21.20;99.90;;;;;;4995084;28;20105;-38
2023/06/25 07:36:59;;;;;;;2.92;2.63;;;21.20;99.90;;;;;;4995130;28;20026;-38
2023/06/25 07:39:29;;;;;;;3.30;2.85;;;21.20;99.90;;;;;;4995109;28;20074;-39
2023/06/25 07:41:56;;;;;;;3.10;2.80;;;21.20;99.90;;;;;;4995030;28;20041;-37
2023/06/25 07:44:22;;;;;;;3.40;2.80;;;21.20;99.90;;;;;;4995009;28;20026;-37
2023/06/25 07:46:48;;;;;;;2.90;2.50;;;21.20;99.90;;;;;;4994882;28;20527;-36
2023/06/25 07:49:13;;;;;;;2.88;2.38;;;21.20;99.90;;;;;;4994942;28;20053;-38
2023/06/25 07:51:39;;;;;;;2.40;2.20;;;21.20;99.90;;;;;;4994867;28;20034;-40
2023/06/25 07:54:05;;;;;;;2.60;2.40;;;21.20;99.90;;;;;;4994734;28;20487;-38
2023/06/25 07:56:30;;;;;;;3.38;2.60;;;21.20;99.90;;;;;;4994579;28;20032;-38
2023/06/25 07:58:56;;;;;;;3.17;2.50;;;21.20;99.90;;;;;;4994754;28;20482;-37
2023/06/25 08:01:22;;;;;;;2.65;2.38;;;21.30;99.90;;;;;;4993709;28;20548;-38
2023/06/25 08:03:47;;;;;;;2.90;2.50;;;21.20;99.90;;;;;;4994514;28;20022;-38
2023/06/25 08:06:13;;;;;;;2.50;2.30;;;21.30;99.90;;;;;;4994592;28;20473;-38
2023/06/25 08:08:39;;;;;;;3.22;2.70;;;21.20;99.90;;;;;;4994581;28;20081;-38
2023/06/25 08:11:05;;;;;;;3.13;2.60;;;21.30;99.90;;;;;;4994474;28;20077;-37
2023/06/25 08:13:30;;;;;;;3.08;2.38;;;21.20;99.90;;;;;;4994745;28;20434;-38
2023/06/25 08:15:56;;;;;;;2.50;2.20;;;21.20;99.90;;;;;;4994295;28;20061;-36
2023/06/25 08:18:22;;;;;;;2.90;2.42;;;21.20;99.90;;;;;;4994338;28;20030;-36
2023/06/25 08:20:47;;;;;;;2.70;2.50;;;21.30;99.90;;;;;;4994425;28;20029;-37
2023/06/25 08:23:13;;;;;;;3.60;2.90;;;21.30;99.90;;;;;;4994298;28;20430;-38
2023/06/25 08:25:38;;;;;;;2.60;2.40;;;21.20;99.90;;;;;;4994090;28;20030;-36
2023/06/25 08:28:04;;;;;;;2.67;2.47;;;21.20;99.90;;;;;;4994418;28;20030;-37
2023/06/25 08:30:30;;;;;;;2.65;2.20;;;21.20;99.90;;;;;;4994203;28;20049;-37
2023/06/25 08:32:55;;;;;;;3.08;2.50;;;21.30;99.90;;;;;;4993964;28;20033;-37
2023/06/25 08:35:21;;;;;;;3.85;2.70;;;21.20;99.90;;;;;;4993790;28;20389;-37
2023/06/25 08:37:47;;;;;;;2.53;2.15;;;21.20;99.90;;;;;;4994105;28;20329;-36
2023/06/25 08:40:13;;;;;;;3.63;2.22;;;21.20;99.90;;;;;;4994175;28;20548;-37
2023/06/25 08:42:42;;;;;;;2.97;2.40;;;21.30;99.90;;;;;;4993834;28;20031;-36
2023/06/25 08:45:11;;;;;;;3.55;2.83;;;21.30;99.90;;;;;;4993842;28;20493;-36
2023/06/25 08:47:40;;;;;;;2.60;2.40;;;21.30;99.90;;;;;;4993906;28;20073;-36
2023/06/25 08:50:08;;;;;;;3.22;2.45;;;21.20;99.90;;;;;;4994027;28;20026;-37
2023/06/25 08:52:34;;;;;;;2.88;2.55;;;21.30;99.90;;;;;;4993957;28;20401;-36
2023/06/25 08:55:00;;;;;;;3.17;2.40;;;21.20;99.90;;;;;;4993567;28;20026;-37
2023/06/25 08:57:26;;;;;;;2.92;2.45;;;21.30;99.90;;;;;;4993697;28;20035;-36
2023/06/25 08:59:51;;;;;;;4.43;2.75;;;21.30;99.90;;;;;;4993715;28;20117;-37
2023/06/25 09:02:18;;;;;;;3.25;2.40;;;21.30;99.90;;;;;;4993402;28;20153;-37
2023/06/25 09:04:46;;;;;;;2.65;2.30;;;21.30;99.90;;;;;;4993436;28;20029;-37
2023/06/25 09:07:15;;;;;;;3.30;2.63;;;21.30;99.90;;;;;;4993642;28;20033;-37
2023/06/25 09:09:42;;;;;;;3.10;2.50;;;21.30;99.90;;;;;;4993562;28;20022;-37
2023/06/25 09:12:09;;;;;;;2.88;2.58;;;21.30;99.90;;;;;;4993368;28;20026;-37
2023/06/25 09:14:36;;;;;;;3.80;2.70;;;21.30;99.90;;;;;;4993361;28;20122;-39
2023/06/25 09:17:02;;;;;;;2.40;2.20;;;21.30;99.90;;;;;;4993339;28;20036;-37
2023/06/25 09:19:28;;;;;;;3.08;2.58;;;21.30;99.90;;;;;;4993424;28;20027;-37
2023/06/25 09:21:54;;;;;;;2.72;2.47;;;21.30;99.90;;;;;;4993168;28;20079;-37
2023/06/25 09:24:22;;;;;;;2.80;2.50;;;21.30;99.90;;;;;;4993453;28;20030;-37
2023/06/25 09:26:49;;;;;;;2.85;2.40;;;21.30;99.90;;;;;;4992852;28;20053;-37
2023/06/25 09:29:16;;;;;;;3.13;2.83;;;21.30;99.90;;;;;;4992962;28;20129;-36
2023/06/25 09:31:43;;;;;;;3.78;2.65;;;21.30;99.90;;;;;;4993004;28;20494;-38
2023/06/25 09:34:09;;;;;;;3.17;2.50;;;21.30;99.90;;;;;;4993184;28;20544;-36
2023/06/25 09:36:37;;;;;;;2.63;2.40;;;21.30;99.90;;;;;;4992351;28;20030;-37
2023/06/25 09:39:08;;;;;;;3.05;2.40;;;21.30;99.90;;;;;;4992855;28;20026;-36
2023/06/25 09:41:35;;;;;;;3.35;2.70;;;21.30;99.90;;;;;;4992844;28;20394;-38
2023/06/25 09:44:06;;;;;;;3.15;2.80;;;21.40;99.90;;;;;;4992772;28;20026;-37
2023/06/25 09:46:39;;;;;;;3.03;2.60;;;21.40;99.90;;;;;;4992785;28;20018;-38
2023/06/25 09:49:07;;;;;;;2.80;2.40;;;21.40;99.90;;;;;;4992797;28;20474;-38
2023/06/25 09:51:41;;;;;;;3.60;2.40;;;21.40;99.90;;;;;;4992996;28;20031;-37
2023/06/25 09:54:11;;;;;;;2.92;2.63;;;21.30;99.90;;;;;;4992370;28;20034;-36
2023/06/25 09:56:38;;;;;;;3.10;2.50;;;21.40;99.90;;;;;;4992422;28;20058;-37
2023/06/25 09:59:05;;;;;;;2.58;2.38;;;21.40;99.90;;;;;;4992538;28;20030;-37
2023/06/25 10:01:31;;;;;;;2.88;2.40;;;21.40;99.90;;;;;;4992612;28;20477;-36
2023/06/25 10:03:56;;;;;;;2.40;2.20;;;21.40;99.90;;;;;;4992463;28;20027;-36
2023/06/25 10:06:22;;;;;;;2.97;2.58;;;21.40;99.90;;;;;;4992247;28;20034;-36
2023/06/25 10:08:50;;;;;;;2.65;2.30;;;21.40;99.90;;;;;;4990974;28;20030;-37
2023/06/25 10:11:16;;;;;;;3.60;2.58;;;21.40;99.90;;;;;;4992409;28;20026;-37
2023/06/25 10:13:45;;;;;;;3.13;2.50;;;21.40;99.90;;;;;;4992151;28;20031;-37
2023/06/25 10:16:17;;;;;;;3.13;2.83;;;21.40;99.90;;;;;;4992023;28;20033;-36
2023/06/25 10:18:43;;;;;;;2.53;2.30;;;21.40;99.90;;;;;;4992376;28;20030;-36
2023/06/25 10:21:18;;;;;;;3.67;2.70;;;21.40;99.90;;;;;;4992212;28;20033;-37
2023/06/25 10:23:56;;;;;;;2.55;2.35;;;21.40;99.90;;;;;;4992286;28;20037;-39
2023/06/25 10:26:34;;;;;;;3.20;2.53;;;21.40;99.90;;;;;;4992074;28;20022;-37
2023/06/25 10:29:05;;;;;;;2.83;2.30;;;21.40;99.90;;;;;;4992232;28;20041;-38
2023/06/25 10:31:38;;;;;;;7.50;4.53;;;21.40;99.90;;;;;;4992021;28;20089;-38
2023/06/25 10:34:08;;;;;;;7.05;3.92;;;21.80;97.50;;;;;;4992088;28;20026;-37
2023/06/25 10:36:34;;;;;;;6.07;4.28;;;21.80;99.30;;;;;;4991760;28;20026;-37
2023/06/25 10:39:00;;;;;;;6.18;4.65;;;21.70;99.60;;;;;;4991920;28;20114;-37
2023/06/25 10:41:30;;;;;;;7.85;4.60;;;21.70;99.80;;;;;;4991980;28;20050;-36
2023/06/25 10:43:57;;;;;;;8.63;4.63;;;21.70;99.90;;;;;;4991882;28;20023;-36
2023/06/25 10:46:32;;;;;;;5.32;4.30;;;21.60;99.90;;;;;;4991522;28;20027;-38
2023/06/25 10:49:01;;;;;;;5.72;4.53;;;21.60;99.90;;;;;;4992568;28;20076;-37
2023/06/25 10:51:28;;;;;;;6.43;4.20;;;21.60;99.90;;;;;;4995958;28;20093;-37
2023/06/25 10:53:55;;;;;;;5.22;4.22;;;21.50;99.90;;;;;;4995860;28;20027;-36
2023/06/25 10:56:23;;;;;;;5.75;4.75;;;21.60;99.90;;;;;;4995645;28;20498;-37
2023/06/25 10:58:56;;;;;;;5.97;4.38;;;21.50;99.90;;;;;;4995677;28;20037;-36
2023/06/25 11:01:22;;;;;;;6.32;4.47;;;21.50;99.90;;;;;;4995706;28;20501;-36
2023/06/25 11:03:48;;;;;;;6.35;4.18;;;21.50;99.90;;;;;;4995614;28;20050;-37
2023/06/25 11:06:14;;;;;;;5.88;4.30;;;21.50;99.90;;;;;;4995550;28;20065;-38
2023/06/25 11:08:43;;;;;;;4.43;3.83;;;21.50;99.90;;;;;;4995665;28;20026;-36
2023/06/25 11:11:08;;;;;;;6.32;4.97;;;21.50;99.90;;;;;;4995576;28;20026;-37
2023/06/25 11:13:34;;;;;;;6.30;4.20;;;21.50;99.90;;;;;;4995322;28;20034;-36
2023/06/25 11:16:00;;;;;;;4.85;4.30;;;21.50;99.90;;;;;;4995256;28;20022;-37
2023/06/25 11:18:25;;;;;;;6.97;4.35;;;21.50;99.90;;;;;;4995383;28;20055;-36
2023/06/25 11:20:53;;;;;;;6.78;4.07;;;21.50;99.90;;;;;;4995404;28;20102;-37
2023/06/25 11:23:19;;;;;;;4.45;3.88;;;21.50;99.90;;;;;;4995840;28;20382;-38
2023/06/25 11:25:45;;;;;;;5.78;4.22;;;21.50;99.90;;;;;;4995073;28;20023;-36
2023/06/25 11:28:12;;;;;;;7.95;3.97;;;21.50;99.90;;;;;;4995347;28;20485;-37
2023/06/25 11:30:38;;;;;;;4.88;3.90;;;21.50;99.90;;;;;;4995253;28;20085;-37
2023/06/25 11:33:12;;;;;;;4.20;3.60;;;21.50;99.90;;;;;;4994952;28;20092;-36
2023/06/25 11:35:38;;;;;;;5.60;4.07;;;21.50;99.90;;;;;;4995044;28;20065;-36
2023/06/25 11:38:04;;;;;;;5.90;4.15;;;21.50;99.90;;;;;;4995145;28;20109;-36
2023/06/25 11:40:32;;;;;;;4.55;3.78;;;21.60;99.90;;;;;;4994971;28;20058;-37
2023/06/25 11:42:58;;;;;;;4.45;3.90;;;21.50;99.90;;;;;;4995145;28;20032;-38
2023/06/25 11:45:24;;;;;;;4.47;3.85;;;21.50;99.90;;;;;;4994688;28;20018;-37
2023/06/25 11:47:53;;;;;;;4.53;3.60;;;21.60;99.90;;;;;;4994962;28;20432;-37
2023/06/25 11:50:22;;;;;;;6.00;4.03;;;21.50;99.90;;;;;;4994962;28;20034;-37
2023/06/25 11:52:49;;;;;;;4.60;3.78;;;21.50;99.90;;;;;;4993370;28;20026;-36
2023/06/25 11:55:14;;;;;;;4.70;3.90;;;21.50;99.90;;;;;;4994547;28;20042;-37
2023/06/25 11:57:40;;;;;;;4.10;3.53;;;21.60;99.90;;;;;;4994681;28;20034;-36
2023/06/25 12:00:07;;;;;;;4.22;3.78;;;21.60;99.90;;;;;;4994206;28;20053;-38
2023/06/25 12:02:33;;;;;;;5.78;3.92;;;21.60;99.90;;;;;;4994639;28;20030;-37
2023/06/25 12:04:58;;;;;;;4.65;3.83;;;21.60;99.90;;;;;;4994442;28;20018;-37
2023/06/25 12:07:24;;;;;;;4.40;3.65;;;21.60;99.90;;;;;;4994476;28;20034;-38
2023/06/25 12:09:50;;;;;;;4.43;3.80;;;21.60;99.90;;;;;;4994506;28;20030;-37
2023/06/25 12:12:15;;;;;;;4.60;3.55;;;21.60;99.90;;;;;;4993091;28;20124;-38
2023/06/25 12:14:41;;;;;;;4.75;3.67;;;21.60;99.90;;;;;;4994339;28;20520;-39
2023/06/25 12:17:07;;;;;;;4.30;3.90;;;21.60;99.90;;;;;;4994289;28;20061;-37
2023/06/25 12:19:32;;;;;;;4.88;3.85;;;21.60;99.90;;;;;;4994245;28;20438;-37
2023/06/25 12:21:58;;;;;;;3.53;3.22;;;21.60;99.90;;;;;;4994148;28;20109;-36
2023/06/25 12:24:24;;;;;;;4.95;4.10;;;21.60;99.90;;;;;;4994235;28;20022;-36
2023/06/25 12:26:50;;;;;;;4.43;3.70;;;21.60;99.90;;;;;;4994037;28;20382;-36
2023/06/25 12:29:16;;;;;;;4.78;3.92;;;21.70;99.90;;;;;;4994345;28;20030;-37
2023/06/25 12:31:41;;;;;;;4.22;3.83;;;21.70;99.90;;;;;;4994208;28;20027;-36
2023/06/25 12:34:07;;;;;;;5.07;3.90;;;21.60;99.90;;;;;;4994017;28;20429;-36
2023/06/25 12:36:33;;;;;;;5.05;4.03;;;21.70;99.90;;;;;;4992453;28;20317;-37
2023/06/25 12:39:00;;;;;;;4.25;3.83;;;21.70;99.90;;;;;;4993973;28;20034;-37
2023/06/25 12:41:26;;;;;;;5.00;3.67;;;21.70;99.90;;;;;;4994030;28;20385;-38
2023/06/25 12:43:51;;;;;;;4.45;3.80;;;21.70;99.90;;;;;;4994078;28;20262;-37